Tiempo atmosférico en la estación meteorológica de Maspalomas, Las Palmas (25 m.)



Fecha
DESCASC
Temp. máxima en grados centígrados (hora)
DESCASC
Temp. mínima en grados centígrados (hora)
DESCASC
Temp. media en grados centígrados
DESCASC
Racha de viento máxima en m/sg (hora)
DESCASC
Velocidad máxima media en intervalos de 10 minutos(hora)
DESCASC
Precipitaciones diarias en mm
DESCASC
Precipitaciones de 00:00 a 06:00 en mm
DESCASC
Precipitaciones de 06:00 a 12:00 en mm
DESCASC
Precipitaciones de 12:00 a 18:00 en mm
DESCASC
Precipitaciones de 18:00 a 24:00 en mm
DESCASC
16-01-2020 21.3 (11:50) 13.5 (04:40) 17.4 7.5 (18:00) 6.39 (17:50) 0 0 0 0 0
15-01-2020 21.2 (14:10) 13.8 (07:30) 17.5 6.94 (16:10) 5.56 (16:10) 0 0 0 0 0
14-01-2020 20.9 (13:30) 14.7 (06:00) 17.8 5 (11:10) 4.17 (10:30) 0 0 0 0 0
13-01-2020 21.5 (13:30) 16 (23:30) 18.8 11.11 (04:00) 6.67 (11:00) 0 0 0 0 0
12-01-2020 21 (14:20) 14.2 (00:00) 17.6 14.17 (12:20) 10.28 (11:40) 0 0 0 0 0
11-01-2020 23 (10:50) 13.6 (00:00) 18.3 11.67 (20:30) 6.67 (20:40) 0 0 0 0 0
10-01-2020 22.9 (13:40) 13.8 (00:00) 18.3 13.06 (16:50) 7.78 (16:50) 0 0 0 0 0
09-01-2020 22 (14:10) 13.1 (00:00) 17.6 10.28 (02:10) 5.83 (02:10) 0 0 0 0 0
08-01-2020 20.6 (15:10) 15 (00:00) 17.8 13.06 (15:20) 10 (14:00) 0 0 0 0 0
07-01-2020 21.5 (15:20) 16.6 (00:00) 19.1 11.39 (01:50) 9.17 (12:50) 0 0 0 0 0
06-01-2020 22.8 (10:20) 15.2 (00:00) 19 11.67 (23:10) 7.22 (23:10) 0 0 0 0 0
05-01-2020 22.1 (13:20) 11.9 (00:00) 17 11.67 (15:20) 8.89 (15:00) 0 0 0 0 0
04-01-2020 20 (13:10) 14.3 (00:00) 17.2 11.39 (14:30) 8.89 (14:00) 0 0 0 0 0
03-01-2020 20 (11:50) 16.9 (00:00) 18.4 12.78 (06:00) 10.28 (05:40) 0 0 0 0 0
02-01-2020 19.2 (11:20) 16 (00:00) 17.6 11.67 (16:40) 9.44 (16:40) 0 0 0 0 0
01-01-2020 20.3 (00:30) 16.4 (00:00) 18.3 20 (07:20) 8.61 (11:50) 0 0 0 0 0
31-12-2019 21.1 (14:00) 13.5 (00:00) 17.3 10.56 (11:40) 8.33 (10:50) 0 0 0 0 0
30-12-2019 24.4 (14:30) 14.7 (00:00) 19.5 11.11 (12:20) 7.78 (12:50) 0 0 0 0 0
29-12-2019 24.1 (12:20) 18.4 (00:00) 21.3 10 (15:40) 7.78 (14:20) 0 0 0 0 0
28-12-2019 23.9 (15:30) 19 (00:00) 21.4 12.5 (08:30) 8.06 (06:10) 0 0 0 0 0
27-12-2019 24.9 (13:30) 18.2 (00:00) 21.6 12.5 (15:30) 9.72 (14:50) 0 0 0 0 0
26-12-2019 24.7 (14:00) 18.7 (00:00) 21.7 11.39 (10:20) 7.78 (13:40) 0 0 0 0 0
25-12-2019 24.5 (10:00) 17.7 (00:00) 21.1 12.78 (19:10) 8.89 (19:10) 0 0 0 0 0
24-12-2019 26.9 (16:50) 15.5 (00:00) 21.2 7.78 (06:40) 5.83 (06:30) 0 0 0 0 0
23-12-2019 22.6 (14:10) 15.6 (00:00) 19.1 11.39 (00:50) 8.33 (01:10) 0 0 0 0 0
22-12-2019 24.4 (13:00) 15.8 (00:00) 20.1 15 (22:30) 9.44 (22:30) 0 0 0 0 0
21-12-2019 22.2 (13:10) 13 (00:00) 17.6 3.89 (11:30) 2.78 (14:30) 0 0 0 0 0
20-12-2019 21.2 (11:00) 13.8 (00:00) 17.5 3.89 (10:00) 3.06 (10:20) 0 0 0 0 0

Gráficas

Temp. máximas Temp. mínimas Temp. medias Precipitaciones Rachas de viento máximas Velocidades máximas media en intervalos de 10 minutos

Datos horarios

Fecha y hora oficial Temperatura (ºC) Velocidad del viento (km/h) Dirección del viento Racha (km/h) Dirección de racha Precipitación (mm) Presión (hPa) Tendencia (hPa) Humedad (%)
2020-01-18 23:00:00 20.6 16 Nordeste 31 Este 0 -- -- 32
2020-01-18 22:00:00 20.9 14 Nordeste 35 Nordeste 0 -- -- 29
2020-01-18 21:00:00 20.1 18 Nordeste 28 Nordeste 0 -- -- 36
2020-01-18 20:00:00 20.1 15 Nordeste 32 Nordeste 0 -- -- 36
2020-01-18 19:00:00 18.6 22 Nordeste 37 Este 0 -- -- 61
2020-01-18 18:00:00 19.4 30 Este 37 Este 0 -- -- 59
2020-01-18 17:00:00 20.4 30 Este 39 Este 0 -- -- 56
2020-01-18 16:00:00 20.6 28 Este 36 Este 0 -- -- 55
2020-01-18 15:00:00 20.7 27 Este 36 Este 0 -- -- 55
2020-01-18 14:00:00 20.9 27 Este 36 Este 0 -- -- 52
2020-01-18 13:00:00 21.1 26 Nordeste 39 Nordeste 0 -- -- 49
2020-01-18 12:00:00 21.2 28 Nordeste 41 Este 0 -- -- 50
2020-01-18 11:00:00 21 28 Este 40 Nordeste 0 -- -- 46
2020-01-18 10:00:00 20.5 27 Nordeste 38 Este 0 -- -- 45
2020-01-18 09:00:00 19.6 23 Nordeste 35 Este 0 -- -- 47
2020-01-18 08:00:00 18.4 25 Nordeste 37 Nordeste 0 -- -- 49
2020-01-18 07:00:00 18.3 21 Nordeste 37 Este 0 -- -- 50
2020-01-18 06:00:00 18.5 21 Nordeste 35 Nordeste 0 -- -- 46
2020-01-18 05:00:00 19.3 19 Nordeste 32 Nordeste 0 -- -- 37
2020-01-18 04:00:00 19.4 18 Nordeste 31 Nordeste 0 -- -- 39
2020-01-18 03:00:00 17.7 16 Nordeste 23 Nordeste 0 -- -- 48
2020-01-18 02:00:00 14.9 11 Nordeste 19 Nordeste 0 -- -- 62
2020-01-18 01:00:00 14.9 5 Nordeste 9 Nordeste 0 -- -- 57
2020-01-18 00:00:00 15.5 2 Oeste 7 Oeste 0 -- -- 64
2020-01-17 23:00:00 15.5 0 Calma 6 Oeste 0 -- -- 70
2020-01-17 22:00:00 16.2 2 Oeste 16 Nordeste 0 -- -- 64
2020-01-17 21:00:00 18.3 11 Nordeste 21 Nordeste 0 -- -- 50
2020-01-17 20:00:00 18.4 15 Nordeste 25 Nordeste 0 -- -- 49
2020-01-17 19:00:00 18.1 19 Nordeste 31 Este 0 -- -- 60
2020-01-17 18:00:00 18.5 26 Este 37 Este 0 -- -- 62
2020-01-17 17:00:00 19.4 29 Este 40 Este 0 -- -- 61
2020-01-17 16:00:00 20 27 Este 39 Este 0 -- -- 61
2020-01-17 15:00:00 19.9 29 Este 39 Este 0 -- -- 60
2020-01-17 14:00:00 19.8 31 Este 44 Este 0 -- -- 59
2020-01-17 13:00:00 20 32 Este 43 Este 0 -- -- 60
2020-01-17 12:00:00 20.4 31 Nordeste 44 Nordeste 0 -- -- 59
2020-01-17 11:00:00 19.7 30 Este 39 Este 0 -- -- 55
2020-01-17 10:00:00 19 24 Nordeste 39 Este 0 -- -- 57
2020-01-17 09:00:00 18.1 17 Nordeste 30 Nordeste 0 -- -- 59
2020-01-17 08:00:00 16.7 13 Nordeste 23 Nordeste 0 -- -- 56
2020-01-17 07:00:00 16.2 12 Nordeste 28 Nordeste 0 -- -- 61
2020-01-17 06:00:00 16.5 14 Nordeste 30 Nordeste 0 -- -- 62
2020-01-17 05:00:00 17.1 23 Nordeste 33 Nordeste 0 -- -- 52
2020-01-17 04:00:00 17.2 18 Nordeste 30 Nordeste 0 -- -- 46
2020-01-17 03:00:00 14.5 3 Norte 13 Nordeste 0 -- -- 47
2020-01-17 02:00:00 13.1 4 Norte 12 Nordeste 0 -- -- 56
2020-01-17 01:00:00 13.9 3 Noroeste 8 Norte 0 -- -- 56
2020-01-17 00:00:00 13.8 4 Noroeste 8 Norte 0 -- -- 60
2020-01-16 23:00:00 15.4 5 Nordeste 17 Nordeste 0 -- -- 64
2020-01-16 22:00:00 16.7 12 Nordeste 22 Nordeste 0 -- -- 65
2020-01-16 21:00:00 17.1 14 Nordeste 21 Nordeste 0 -- -- 64
2020-01-16 20:00:00 17.5 12 Nordeste 23 Este 0 -- -- 64
2020-01-16 19:00:00 18 20 Este 25 Este 0 -- -- 60
2020-01-16 18:00:00 18.8 23 Este 27 Este 0 -- -- 60
2020-01-16 17:00:00 19.9 19 Este 22 Este 0 -- -- 59
2020-01-16 16:00:00 20.4 18 Este 24 Este 0 -- -- 59
2020-01-16 15:00:00 20.7 17 Este 21 Este 0 -- -- 59
2020-01-16 14:00:00 20.3 17 Este 21 Este 0 -- -- 55
2020-01-16 13:00:00 20.4 17 Este 22 Este 0 -- -- 61
2020-01-16 12:00:00 20.9 16 Este 21 Este 0 -- -- 61
2020-01-16 11:00:00 19.7 16 Este 23 Nordeste 0 -- -- 61
2020-01-16 10:00:00 19.4 13 Nordeste 21 Nordeste 0 -- -- 64
2020-01-16 09:00:00 16.8 6 Norte 13 Nordeste 0 -- -- 50
2020-01-16 08:00:00 14.1 6 Norte 12 Nordeste 0 -- -- 45
2020-01-16 07:00:00 14.8 6 Norte 12 Nordeste 0 -- -- 44
2020-01-16 06:00:00 14.3 4 Norte 8 Nordeste 0 -- -- 44
2020-01-16 05:00:00 14.3 4 Norte 13 Nordeste 0 -- -- 45
2020-01-16 04:00:00 14.5 8 Norte 13 Nordeste 0 -- -- 62
2020-01-16 03:00:00 15 8 Nordeste 13 Nordeste 0 -- -- 50
2020-01-16 02:00:00 15 6 Nordeste 12 Nordeste 0 -- -- 46
2020-01-16 01:00:00 15.3 5 Norte 10 Norte 0 -- -- 41
2020-01-16 00:00:00 15.7 5 Norte 11 Nordeste 0 -- -- 42
2020-01-15 23:00:00 15.4 4 Norte 14 Nordeste 0 -- -- 46
2020-01-15 22:00:00 16.4 10 Nordeste 15 Este 0 -- -- 64
2020-01-15 21:00:00 16.8 10 Nordeste 18 Nordeste 0 -- -- 67
2020-01-15 20:00:00 17 10 Nordeste 15 Nordeste 0 -- -- 62
2020-01-15 19:00:00 17.9 12 Nordeste 22 Este 0 -- -- 56
2020-01-15 18:00:00 18.8 18 Este 23 Este 0 -- -- 56
2020-01-15 17:00:00 19.6 18 Este 25 Este 0 -- -- 59
2020-01-15 16:00:00 20.1 19 Este 23 Este 0 -- -- 59
2020-01-15 15:00:00 20.8 16 Este 22 Este 0 -- -- 55
2020-01-15 14:00:00 20.8 16 Este 23 Este 0 -- -- 54
2020-01-15 13:00:00 20.7 17 Este 23 Este 0 -- -- 57
2020-01-15 12:00:00 20.5 18 Este 24 Este 0 -- -- 60
2020-01-15 11:00:00 20.2 16 Este 21 Este 0 -- -- 59
2020-01-15 10:00:00 19.5 13 Este 17 Este 0 -- -- 55
2020-01-15 09:00:00 16.3 4 Norte 6 Norte 0 -- -- 44
2020-01-15 08:00:00 13.8 3 Norte 6 Norte 0 -- -- 46
2020-01-15 07:00:00 14.1 4 Norte 15 Norte 0 -- -- 51
2020-01-15 06:00:00 14.4 6 Norte 13 Norte 0 -- -- 45
2020-01-15 05:00:00 14.9 5 Norte 11 Nordeste 0 -- -- 44
2020-01-15 04:00:00 14.6 5 Norte 8 Norte 0 -- -- 44
2020-01-15 03:00:00 14.7 4 Norte 9 Norte 0 -- -- 44
2020-01-15 02:00:00 15 4 Norte 9 Nordeste 0 -- -- 45
2020-01-15 01:00:00 14.5 0 Calma 4 Norte 0 -- -- 47
2020-01-15 00:00:00 15 2 Norte 8 Norte 0 -- -- 47
2020-01-14 23:00:00 15.1 4 Norte 8 Norte 0 -- -- 50
2020-01-14 22:00:00 15.6 4 Norte 9 Norte 0 -- -- 54
2020-01-14 21:00:00 16 3 Norte 8 Nordeste 0 -- -- 59
2020-01-14 20:00:00 16.2 5 Nordeste 11 Nordeste 0 -- -- 62
2020-01-14 19:00:00 17.6 8 Este 14 Este 0 -- -- 60
2020-01-14 18:00:00 18.6 9 Sudeste 15 Sudeste 0 -- -- 58
2020-01-14 17:00:00 19.6 7 Sudeste 13 Sur 0 -- -- 57
2020-01-14 16:00:00 19.8 8 Sudeste 18 Sur 0 -- -- 56
2020-01-14 15:00:00 20 12 Sudeste 17 Sudeste 0 -- -- 57
2020-01-14 14:00:00 20.4 12 Sudeste 18 Sudeste 0 -- -- 57
2020-01-14 13:00:00 20.3 11 Sudeste 17 Sudeste 0 -- -- 52
2020-01-14 12:00:00 19.9 13 Sudeste 18 Sudeste 0 -- -- 56
2020-01-14 11:00:00 19.8 14 Sudeste 18 Sudeste 0 -- -- 59
2020-01-14 10:00:00 19.5 11 Sudeste 17 Sudeste 0 -- -- 59
2020-01-14 09:00:00 18.4 4 Nordeste 17 Sudeste 0 -- -- 61
2020-01-14 08:00:00 18.4 11 Sudeste 15 Sudeste 0 -- -- 65
2020-01-14 07:00:00 15.7 6 Norte 15 Nordeste 0 -- -- 66
2020-01-14 06:00:00 14.8 9 Nordeste 17 Nordeste 0 -- -- 71
2020-01-14 05:00:00 15.5 8 Nordeste 14 Norte 0 -- -- 61
2020-01-14 04:00:00 16 7 Nordeste 12 Nordeste 0 -- -- 50
2020-01-14 03:00:00 15.2 7 Norte 16 Nordeste 0 -- -- 74
2020-01-14 02:00:00 16.9 10 Nordeste 18 Nordeste 0 -- -- 76
2020-01-14 01:00:00 16.5 10 Nordeste 15 Este 0 -- -- 64
2020-01-14 00:00:00 16.6 5 Norte 11 Norte 0 -- -- 42
2020-01-13 23:00:00 16.5 3 Norte 8 Norte 0 -- -- 44
2020-01-13 22:00:00 16.7 0 Calma 7 Norte 0 -- -- 45
2020-01-13 21:00:00 17.1 0 Calma 7 Norte 0 -- -- 46
2020-01-13 20:00:00 17.6 3 Norte 8 Nordeste 0 -- -- 51
2020-01-13 19:00:00 17.7 3 Nordeste 11 Nordeste 0 -- -- 56
2020-01-13 18:00:00 20 6 Nordeste 13 Este 0 -- -- 55
2020-01-13 17:00:00 21 6 Este 17 Sudeste 0 -- -- 56
2020-01-13 16:00:00 19.7 13 Sudeste 20 Este 0 -- -- 59
2020-01-13 15:00:00 20.7 15 Este 20 Este 0 -- -- 62
2020-01-13 14:00:00 20.9 15 Este 23 Este 0 -- -- 64
2020-01-13 13:00:00 21.3 10 Este 27 Este 0 -- -- 61
2020-01-13 12:00:00 20.2 22 Este 31 Este 0 -- -- 70
2020-01-13 11:00:00 19.7 24 Este 31 Este 0 -- -- 65
2020-01-13 10:00:00 19.8 21 Nordeste 28 Nordeste 0 -- -- 60
2020-01-13 09:00:00 18.7 16 Nordeste 28 Nordeste 0 -- -- 64
2020-01-13 08:00:00 17.5 18 Nordeste 32 Nordeste 0 -- -- 70
2020-01-13 07:00:00 17.6 19 Nordeste 36 Nordeste 0 -- -- 70
2020-01-13 06:00:00 17.9 23 Nordeste 37 Nordeste 0 -- -- 65
2020-01-13 05:00:00 18 20 Nordeste 40 Norte 0 -- -- 60
2020-01-13 04:00:00 18.4 21 Nordeste 40 Nordeste 0 -- -- 54
2020-01-13 03:00:00 18.6 20 Nordeste 36 Este 0 -- -- 50
2020-01-13 02:00:00 18.8 19 Nordeste 34 Nordeste 0 -- -- 46
2020-01-13 01:00:00 19.3 16 Nordeste 33 Nordeste 0 -- -- 41
2020-01-13 00:00:00 19.4 20 Nordeste 36 Nordeste 0 -- -- 40
2020-01-12 23:00:00 18.8 15 Nordeste 25 Nordeste 0 -- -- 42
2020-01-12 22:00:00 18.8 11 Nordeste 28 Nordeste 0 -- -- 41
2020-01-12 21:00:00 18.6 13 Nordeste 27 Nordeste 0 -- -- 44
2020-01-12 20:00:00 17.9 17 Nordeste 37 Nordeste 0 -- -- 59
2020-01-12 19:00:00 17.4 6 Este 27 Nordeste 0 -- -- 66
2020-01-12 18:00:00 18.7 22 Nordeste 35 Este 0 -- -- 61
2020-01-12 17:00:00 19.5 25 Nordeste 44 Nordeste 0 -- -- 61
2020-01-12 16:00:00 19.9 30 Este 45 Nordeste 0 -- -- 56
2020-01-12 15:00:00 20.1 30 Este 42 Este 0 -- -- 51
2020-01-12 14:00:00 20.5 32 Este 44 Nordeste 0 -- -- 59
2020-01-12 13:00:00 20.3 34 Nordeste 51 Nordeste 0 -- -- 61
2020-01-12 12:00:00 20.2 36 Este 50 Este 0 -- -- 60
2020-01-12 11:00:00 19.5 28 Nordeste 45 Nordeste 0 -- -- 61
2020-01-12 10:00:00 18.6 14 Este 23 Este 0 -- -- 65
2020-01-12 09:00:00 14.5 0 Calma 12 Nordeste 0 -- -- 72
2020-01-12 08:00:00 14.5 5 Norte 27 Nordeste 0 -- -- 72
2020-01-12 07:00:00 16.9 15 Nordeste 41 Nordeste 0 -- -- 70
2020-01-12 06:00:00 17 23 Nordeste 38 Nordeste 0 -- -- 71
2020-01-12 05:00:00 15 0 Calma 6 Nordeste 0 -- -- 73
2020-01-12 04:00:00 16.2 0 Calma 18 Norte 0 -- -- 71
2020-01-12 03:00:00 16.5 5 Nordeste 12 Este 0 -- -- 73
2020-01-12 02:00:00 17.4 4 Nordeste 15 Este 0 -- -- 70
2020-01-12 01:00:00 17.3 3 Noroeste 6 Noroeste 0 -- -- 71
2020-01-12 00:00:00 17.2 0 Calma 17 Nordeste 0 -- -- 70
2020-01-11 23:00:00 17.7 0 Calma 21 Nordeste 0 -- -- 65
2020-01-11 22:00:00 17.8 5 Nordeste 24 Este 0 -- -- 64
2020-01-11 21:00:00 18.4 15 Nordeste 42 Este 0 -- -- 64
2020-01-11 20:00:00 18.3 13 Nordeste 27 Nordeste 0 -- -- 66
2020-01-11 19:00:00 18.6 15 Nordeste 25 Este 0 -- -- 69
2020-01-11 18:00:00 18.7 17 Este 30 Este 0 -- -- 69
2020-01-11 17:00:00 19.3 12 Sudoeste 17 Sudoeste 0 -- -- 69
2020-01-11 16:00:00 19.6 12 Oeste 19 Oeste 0 -- -- 67
2020-01-11 15:00:00 20.1 10 Oeste 22 Oeste 0 -- -- 66
2020-01-11 14:00:00 20.5 11 Oeste 21 Oeste 0 -- -- 64
2020-01-11 13:00:00 22.5 7 Oeste 16 Sudoeste 0 -- -- 59
2020-01-11 12:00:00 19.2 12 Sudeste 17 Sudeste 0 -- -- 66
2020-01-11 11:00:00 21.6 4 Sur 13 Nordeste 0 -- -- 59
2020-01-11 10:00:00 20.1 0 Calma 7 Nordeste 0 -- -- 66
2020-01-11 09:00:00 17.6 2 Norte 13 Nordeste 0 -- -- 67
2020-01-11 08:00:00 15.4 2 Norte 8 Nordeste 0 -- -- 74
2020-01-11 07:00:00 14.3 2 Norte 9 Nordeste 0 -- -- 76
2020-01-11 06:00:00 13.8 5 Norte 9 Nordeste 0 -- -- 78
2020-01-11 05:00:00 13.6 2 Nordeste 8 Noroeste 0 -- -- 79
2020-01-11 04:00:00 14.7 3 Noroeste 9 Norte 0 -- -- 79
2020-01-11 03:00:00 14.4 2 Noroeste 4 Noroeste 0 -- -- 79
2020-01-11 02:00:00 15.1 0 Calma 7 Nordeste 0 -- -- 79
2020-01-11 01:00:00 16 3 Norte 16 Nordeste 0 -- -- 78
2020-01-11 00:00:00 15.9 0 Calma 9 Sudeste 0 -- -- 76
2020-01-10 23:00:00 16.6 4 Norte 10 Nordeste 0 -- -- 74
2020-01-10 22:00:00 17.2 4 Norte 13 Nordeste 0 -- -- 73
2020-01-10 21:00:00 17.8 0 Calma 26 Nordeste 0 -- -- 65
2020-01-10 20:00:00 19 18 Nordeste 32 Nordeste 0 -- -- 62
2020-01-10 19:00:00 19.3 15 Nordeste 39 Nordeste 0 -- -- 64
2020-01-10 18:00:00 20.3 17 Nordeste 40 Nordeste 0 -- -- 64
2020-01-10 17:00:00 21.3 24 Nordeste 47 Nordeste 0 -- -- 64
2020-01-10 16:00:00 21.5 8 Oeste 23 Oeste 0 -- -- 69
2020-01-10 15:00:00 22.1 9 Oeste 21 Oeste 0 -- -- 65
2020-01-10 14:00:00 21.7 8 Oeste 25 Oeste 0 -- -- 65
2020-01-10 13:00:00 21.4 8 Oeste 21 Oeste 0 -- -- 65
2020-01-10 12:00:00 20.4 8 Oeste 27 Sur 0 -- -- 67
2020-01-10 11:00:00 20.7 2 Sudoeste 23 Este 0 -- -- 66
2020-01-10 10:00:00 19.3 0 Calma 14 Noroeste 0 -- -- 65
2020-01-10 09:00:00 17.5 3 Noroeste 8 Nordeste 0 -- -- 70
2020-01-10 08:00:00 14 3 Norte 9 Noroeste 0 -- -- 75
2020-01-10 07:00:00 14.7 4 Norte 14 Nordeste 0 -- -- 75
2020-01-10 06:00:00 14.8 3 Norte 18 Nordeste 0 -- -- 72
2020-01-10 05:00:00 14 2 Norte 9 Noroeste 0 -- -- 76
2020-01-10 04:00:00 13.9 0 Calma 9 Nordeste 0 -- -- 75
2020-01-10 03:00:00 14.1 0 Calma 12 Nordeste 0 -- -- 76
2020-01-10 02:00:00 14.4 0 Calma 7 Norte 0 -- -- 76
2020-01-10 01:00:00 14.5 0 Calma 4 Oeste 0 -- -- 75
2020-01-10 00:00:00 15.4 2 Noroeste 9 Nordeste 0 -- -- 73
2020-01-09 23:00:00 15.2 4 Nordeste 21 Este 0 -- -- 72
2020-01-09 22:00:00 16.6 2 Norte 23 Nordeste 0 -- -- 69
2020-01-09 21:00:00 17 3 Norte 11 Nordeste 0 -- -- 71
2020-01-09 20:00:00 17.2 0 Calma 6 Norte 0 -- -- 71
2020-01-09 19:00:00 18.5 0 Calma 11 Oeste 0 -- -- 67
2020-01-09 18:00:00 20.2 5 Oeste 18 Sudoeste 0 -- -- 64
2020-01-09 17:00:00 20.1 15 Sudoeste 24 Sudoeste 0 -- -- 65
2020-01-09 16:00:00 20.5 17 Sudoeste 24 Oeste 0 -- -- 64
2020-01-09 15:00:00 20.8 13 Oeste 24 Oeste 0 -- -- 62
2020-01-09 14:00:00 21.7 9 Oeste 20 Sudoeste 0 -- -- 60
2020-01-09 13:00:00 20.8 15 Sudoeste 21 Sudoeste 0 -- -- 62
2020-01-09 12:00:00 19.7 15 Sudoeste 18 Sudoeste 0 -- -- 65
2020-01-09 11:00:00 21 5 Sudoeste 12 Sudoeste 0 -- -- 60
2020-01-09 10:00:00 20 9 Nordeste 12 Nordeste 0 -- -- 59
2020-01-09 09:00:00 16.3 0 Calma 11 Nordeste 0 -- -- 61
2020-01-09 08:00:00 13.3 0 Calma 10 Nordeste 0 -- -- 65
2020-01-09 07:00:00 13.3 6 Nordeste 11 Nordeste 0 -- -- 66
2020-01-09 06:00:00 14.2 3 Norte 13 Nordeste 0 -- -- 66
2020-01-09 05:00:00 15.4 3 Norte 12 Nordeste 0 -- -- 64
2020-01-09 04:00:00 15.1 0 Calma 11 Este 0 -- -- 65
2020-01-09 03:00:00 17.1 9 Nordeste 37 Nordeste 0 -- -- 62
2020-01-09 02:00:00 17.4 19 Nordeste 35 Nordeste 0 -- -- 67
2020-01-09 01:00:00 17.5 17 Nordeste 36 Nordeste 0 -- -- 67
2020-01-09 00:00:00 17.1 10 Nordeste 26 Nordeste 0 -- -- 69
2020-01-08 23:00:00 17.5 18 Nordeste 28 Este 0 -- -- 64
2020-01-08 22:00:00 17.6 15 Nordeste 30 Nordeste 0 -- -- 65
2020-01-08 21:00:00 17.7 19 Nordeste 26 Nordeste 0 -- -- 68
2020-01-08 20:00:00 18 21 Nordeste 40 Nordeste 0 -- -- 66
2020-01-08 19:00:00 18.4 19 Nordeste 38 Nordeste 0 -- -- 66
2020-01-08 18:00:00 19.1 26 Nordeste 41 Este 0 -- -- 64
2020-01-08 17:00:00 20.1 30 Nordeste 45 Nordeste 0 -- -- 62
2020-01-08 16:00:00 20.3 33 Este 47 Este 0 -- -- 66
2020-01-08 15:00:00 20.4 33 Este 45 Este 0 -- -- 67
2020-01-08 14:00:00 19.9 36 Este 45 Este 0 -- -- 67
2020-01-08 13:00:00 19.5 28 Este 39 Este 0 -- -- 70
2020-01-08 12:00:00 19.6 28 Este 40 Este 0 -- -- 67
2020-01-08 11:00:00 19.4 27 Este 36 Este 0 -- -- 69
2020-01-08 10:00:00 18.6 21 Nordeste 31 Nordeste 0 -- -- 67
2020-01-08 09:00:00 17.8 15 Nordeste 27 Nordeste 0 -- -- 70
2020-01-08 08:00:00 16.9 12 Nordeste 24 Nordeste 0 -- -- 70
2020-01-08 07:00:00 16.9 12 Nordeste 23 Este 0 -- -- 69
2020-01-08 06:00:00 16.8 12 Nordeste 27 Nordeste 0 -- -- 71
2020-01-08 05:00:00 17 14 Nordeste 25 Nordeste 0 -- -- 69
2020-01-08 04:00:00 17 14 Nordeste 26 Norte 0 -- -- 71
2020-01-08 03:00:00 17 11 Nordeste 25 Nordeste 0 -- -- 70
2020-01-08 02:00:00 16.8 10 Nordeste 22 Nordeste 0 -- -- 70
2020-01-08 01:00:00 16.3 8 Nordeste 23 Nordeste 0 -- -- 68
2020-01-08 00:00:00 17.5 14 Nordeste 28 Nordeste 0 -- -- 70
2020-01-07 23:00:00 17.6 18 Nordeste 26 Nordeste 0 -- -- 71
2020-01-07 22:00:00 17.8 14 Nordeste 24 Nordeste 0 -- -- 70
2020-01-07 21:00:00 17.9 9 Nordeste 23 Este 0 -- -- 66
2020-01-07 20:00:00 18.2 9 Nordeste 23 Nordeste 0 -- -- 65
2020-01-07 19:00:00 18.9 13 Nordeste 28 Nordeste 0 -- -- 52
2020-01-07 18:00:00 19.9 16 Nordeste 34 Nordeste 0 -- -- 47
2020-01-07 17:00:00 20.7 23 Nordeste 36 Nordeste 0 -- -- 42
2020-01-07 16:00:00 21.5 22 Nordeste 37 Este 0 -- -- 41
2020-01-07 15:00:00 21 27 Este 37 Este 0 -- -- 50
2020-01-07 14:00:00 20.9 26 Nordeste 37 Este 0 -- -- 55
2020-01-07 13:00:00 20.2 30 Este 41 Este 0 -- -- 60
2020-01-07 12:00:00 19.9 28 Este 39 Este 0 -- -- 62
2020-01-07 11:00:00 19.4 23 Nordeste 37 Este 0 -- -- 64
2020-01-07 10:00:00 19 25 Nordeste 36 Nordeste 0 -- -- 66
2020-01-07 09:00:00 18 18 Nordeste 32 Nordeste 0 -- -- 70
2020-01-07 08:00:00 16.8 13 Nordeste 29 Norte 0 -- -- 71
2020-01-07 07:00:00 17 16 Nordeste 30 Este 0 -- -- 73
2020-01-07 06:00:00 17.1 14 Nordeste 26 Nordeste 0 -- -- 70
2020-01-07 05:00:00 17.1 23 Nordeste 36 Este 0 -- -- 72
2020-01-07 04:00:00 17.4 27 Nordeste 36 Nordeste 0 -- -- 72
2020-01-07 03:00:00 17.7 21 Nordeste 39 Nordeste 0 -- -- 69
2020-01-07 02:00:00 17.7 25 Nordeste 41 Nordeste 0 -- -- 70
2020-01-07 01:00:00 17.8 22 Nordeste 37 Nordeste 0 -- -- 67
2020-01-07 00:00:00 18 17 Este 42 Nordeste 0 -- -- 66
2020-01-06 23:00:00 18.2 22 Nordeste 40 Nordeste 0 -- -- 64
2020-01-06 22:00:00 18.4 14 Nordeste 36 Este 0 -- -- 67
2020-01-06 21:00:00 18.8 3 Nordeste 20 Este 0 -- -- 65
2020-01-06 20:00:00 18.9 10 Sudeste 18 Sudeste 0 -- -- 70
2020-01-06 19:00:00 19.2 12 Sudoeste 27 Oeste 0 -- -- 71
2020-01-06 18:00:00 19.7 14 Oeste 25 Oeste 0 -- -- 68
2020-01-06 17:00:00 20.7 11 Oeste 27 Sudoeste 0 -- -- 62
2020-01-06 16:00:00 20.8 19 Sudoeste 32 Sudoeste 0 -- -- 63
2020-01-06 15:00:00 20.5 20 Sudoeste 27 Sudoeste 0 -- -- 60
2020-01-06 14:00:00 20.8 16 Oeste 25 Oeste 0 -- -- 59
2020-01-06 13:00:00 20.5 17 Oeste 26 Sudoeste 0 -- -- 59
2020-01-06 12:00:00 20.5 12 Oeste 20 Oeste 0 -- -- 61
2020-01-06 11:00:00 21 6 Sur 21 Nordeste 0 -- -- 59
2020-01-06 10:00:00 22.4 3 Norte 11 Norte 0 -- -- 54
2020-01-06 09:00:00 18.8 0 Calma 15 Este 0 -- -- 65